AV - LB | Pilotos de la V.A




 METAR AND TAF INFORMATION
METAR FOR VTSP
ADDS - METARS form results

(0148 UTC 19 May 2021)
Data provider http://aviationweather.gov/metar/data/
 
METAR text: VTSP 190130Z 28011KT 9999 SCT020 SCT100 29/25 Q1009 NOSIG
Conditions at: VTSP (PHUKET INTL AIRP, TH) observed 0130 UTC 19 May 2021
Temperature: 29.0°C (84°F)
Dewpoint: 25.0°C (77°F) [RH = 79%]
Pressure (altimeter): 29.79 inches Hg (1009.0 mb)
Winds: from the W (280 degrees) at 13 MPH (11 knots; 5.7 m/s)
Visibility: 6 or more miles (10+ km)
Ceiling: at least 12,000 feet AGL
Clouds: scattered clouds at 2000 feet AGL
scattered clouds at 10000 feet AGL
Weather: no significant weather observed at this time

METAR text: VTSP 190100Z 29009KT 9999 SCT020 SCT100 29/25 Q1008 NOSIG
Conditions at: VTSP (PHUKET INTL AIRP, TH) observed 0100 UTC 19 May 2021
Temperature: 29.0°C (84°F)
Dewpoint: 25.0°C (77°F) [RH = 79%]
Pressure (altimeter): 29.76 inches Hg (1008.0 mb)
Winds: from the WNW (290 degrees) at 10 MPH (9 knots; 4.6 m/s)
Visibility: 6 or more miles (10+ km)
Ceiling: at least 12,000 feet AGL
Clouds: scattered clouds at 2000 feet AGL
scattered clouds at 10000 feet AGL
Weather: no significant weather observed at this time

Forecast for: VTSP (PHUKET INTL AIRP, TH)
Text: TAF VTSP 182300Z 1900/2006 30008KT 9999 FEW020 SCT100
Forecast period: 0000 UTC 19 May 2021 to 0600 UTC 20 May 2021
Forecast type: FROM: standard forecast or significant change
Winds: from the WNW (300 degrees) at 9 MPH (8 knots; 4.1 m/s)
Visibility: 6 or more miles (10+ km)
Ceiling: at least 12,000 feet AGL
Clouds: few clouds at 2000 feet AGL
scattered clouds at 10000 feet AGL
Weather: no significant weather forecast for this period
Text: TEMPO 1904/1910 30015G25KT 3000 TSRA FEW016CB BKN020
Forecast period: 0400 to 1000 UTC 19 May 2021
Forecast type: TEMPORARY: The following changes expected for less than half the time period
Winds: from the WNW (300 degrees) at 17 MPH (15 knots; 7.7 m/s)
gusting to 29 MPH (25 knots; 12.9 m/s)
Visibility: 1.86 miles (2.99 km)
Ceiling: 2000 feet AGL
Clouds: few clouds at 1600 feet AGL
broken clouds at 2000 feet AGL
Weather: TSRA  (rain associated with thunderstorm(s))

 AIRPORT MAP

 RUNWAY INFORMATION
Runway 09 Runway length 9843 ft Runway width 148 ft
Runway elevation 19 ft Runway displaced threshold 0 ft Runway heading 85
Runway 27 Runway length 9843 ft Runway width 148 ft
Runway elevation 82 ft Runway displaced threshold 0 ft Runway heading 265

 AIRPORT FREQUENCIES
Type APP Name APP Frequency 124.7 MHZ
Type ATIS Name ATIS Frequency 128 MHZ
Type GND Name GND Frequency 121.9 MHZ
Type TWR Name TWR Frequency 118.1 MHZ

 AIRPORT NEAR NAVIGATION AIDS
Type NDB Name Phuket Frequency 360 KHZ
Type VOR-DME Name Phuket Frequency 116900 KHZ